createdAt,value
2023-02-25T00:00:53.901Z,85.33
2023-02-25T00:02:03.486Z,86.33
2023-02-25T00:02:55.927Z,85.29
2023-02-25T00:03:53.879Z,84.98
2023-02-25T00:04:53.862Z,85.39
2023-02-25T00:05:53.854Z,85.74
2023-02-25T00:06:53.844Z,85.60
2023-02-25T00:07:53.865Z,85.50
2023-02-25T00:08:53.828Z,85.64
2023-02-25T00:09:53.818Z,85.29
2023-02-25T00:10:53.812Z,84.81
2023-02-25T00:11:53.805Z,85.64
2023-02-25T00:12:53.855Z,84.91
2023-02-25T00:13:53.809Z,84.91
2023-02-25T00:14:53.782Z,84.36
2023-02-25T00:15:53.786Z,85.22
2023-02-25T00:16:53.827Z,84.88
2023-02-25T00:17:53.789Z,84.50
2023-02-25T00:18:53.748Z,84.39
2023-02-25T00:19:53.747Z,84.50
2023-02-25T00:20:53.733Z,84.05
2023-02-25T00:21:53.732Z,84.36
2023-02-25T00:22:53.745Z,83.94
2023-02-25T00:23:53.825Z,83.94
2023-02-25T00:24:53.737Z,84.05
2023-02-25T00:25:53.699Z,83.94
2023-02-25T00:26:53.693Z,84.46
2023-02-25T00:27:53.717Z,84.70
2023-02-25T00:28:53.690Z,84.60
2023-02-25T00:29:53.668Z,83.94
2023-02-25T00:30:53.795Z,83.98
2023-02-25T00:31:53.787Z,84.77
2023-02-25T00:32:53.767Z,84.56
2023-02-25T00:33:53.656Z,85.19
2023-02-25T00:34:53.649Z,84.70
2023-02-25T00:35:53.625Z,84.60
2023-02-25T00:36:53.673Z,84.98
2023-02-25T00:37:55.652Z,85.12
2023-02-25T00:38:53.606Z,85.22
2023-02-25T00:39:53.604Z,83.87
2023-02-25T00:40:53.589Z,84.29
2023-02-25T00:41:53.580Z,84.60
2023-02-25T00:42:53.602Z,85.22
2023-02-25T00:43:53.561Z,84.60
2023-02-25T00:44:53.556Z,84.29
2023-02-25T00:45:53.611Z,84.81
2023-02-25T00:46:53.547Z,84.70
2023-02-25T00:47:53.569Z,83.87
2023-02-25T00:48:53.536Z,84.50
2023-02-25T00:49:53.544Z,84.29
2023-02-25T00:50:53.510Z,84.19
2023-02-25T00:51:53.503Z,84.77
2023-02-25T00:52:53.516Z,84.70
2023-02-25T00:53:53.500Z,84.39
2023-02-25T00:54:53.489Z,85.12
2023-02-25T00:55:53.460Z,85.22
2023-02-25T00:56:54.474Z,84.70
2023-02-25T00:57:53.480Z,85.43
2023-02-25T00:58:54.455Z,85.43
2023-02-25T00:59:53.448Z,85.43
2023-02-25T01:00:53.442Z,85.39
2023-02-25T01:01:53.481Z,85.85
2023-02-25T01:02:53.513Z,86.05
2023-02-25T01:03:53.416Z,86.36
2023-02-25T01:04:53.397Z,87.09
2023-02-25T01:05:53.390Z,87.82
2023-02-25T01:06:53.399Z,87.51
2023-02-25T01:07:53.405Z,87.82
2023-02-25T01:08:53.400Z,87.92
2023-02-25T01:09:53.364Z,88.34
2023-02-25T01:10:53.349Z,88.65
2023-02-25T01:11:53.357Z,88.54
2023-02-25T01:12:53.337Z,89.06
2023-02-25T01:13:53.442Z,89.37
2023-02-25T01:14:53.326Z,89.17
2023-02-25T01:15:53.327Z,89.69
2023-02-25T01:16:53.307Z,89.69
2023-02-25T01:17:53.310Z,89.79
2023-02-25T01:18:53.323Z,89.58
2023-02-25T01:19:53.288Z,89.48
2023-02-25T01:20:53.299Z,89.58
2023-02-25T01:21:53.275Z,90.00
2023-02-25T01:22:53.263Z,89.58
2023-02-25T01:23:53.288Z,90.00
2023-02-25T01:24:53.251Z,89.79
2023-02-25T01:25:53.247Z,89.79
2023-02-25T01:26:53.237Z,89.52
2023-02-25T01:27:53.222Z,90.04
2023-02-25T01:28:53.256Z,90.35
2023-02-25T01:29:53.209Z,90.62
2023-02-25T01:30:53.347Z,90.52
2023-02-25T01:31:53.383Z,90.87
2023-02-25T01:32:53.211Z,91.28
2023-02-25T01:33:53.201Z,91.08
2023-02-25T01:34:53.170Z,90.97
2023-02-25T01:35:53.173Z,91.12
2023-02-25T01:36:53.194Z,91.39
2023-02-25T01:37:53.156Z,91.49
2023-02-25T01:38:53.173Z,91.39
2023-02-25T01:39:53.131Z,91.33
2023-02-25T01:40:54.149Z,91.85
2023-02-25T01:41:53.140Z,92.47
2023-02-25T01:42:53.114Z,92.16
2023-02-25T01:43:53.129Z,92.05
2023-02-25T01:44:53.091Z,92.47
2023-02-25T01:45:53.086Z,91.95
2023-02-25T01:46:53.105Z,92.47
2023-02-25T01:47:54.079Z,92.41
2023-02-25T01:48:53.124Z,92.72
2023-02-25T01:49:53.064Z,92.99
2023-02-25T01:50:53.053Z,93.87
2023-02-25T01:51:53.044Z,93.20
2023-02-25T01:52:53.073Z,93.30
2023-02-25T01:53:53.082Z,93.35
2023-02-25T01:54:53.029Z,93.35
2023-02-25T01:55:53.023Z,93.41
2023-02-25T01:56:53.020Z,93.76
2023-02-25T01:57:53.003Z,93.55
2023-02-25T01:58:53.050Z,93.20
2023-02-25T01:59:53.012Z,93.10
2023-02-25T02:00:53.055Z,93.10
2023-02-25T02:01:52.979Z,93.41
2023-02-25T02:02:53.024Z,93.35
2023-02-25T02:03:52.981Z,93.87
2023-02-25T02:04:52.950Z,93.66
2023-02-25T02:05:52.936Z,93.97
2023-02-25T02:06:52.934Z,93.82
2023-02-25T02:07:52.936Z,94.45
2023-02-25T02:08:52.956Z,94.24
2023-02-25T02:09:52.902Z,94.34
2023-02-25T02:10:52.902Z,95.17
2023-02-25T02:11:52.896Z,95.11
2023-02-25T02:12:52.880Z,95.73
2023-02-25T02:13:52.877Z,95.38
2023-02-25T02:14:52.910Z,95.53
2023-02-25T02:15:52.884Z,95.53
2023-02-25T02:16:52.850Z,95.53
2023-02-25T02:17:52.899Z,95.48
2023-02-25T02:18:52.839Z,95.48
2023-02-25T02:19:52.852Z,95.79
2023-02-25T02:20:52.834Z,95.73
2023-02-25T02:21:52.816Z,94.90
2023-02-25T02:22:52.805Z,94.28
2023-02-25T02:23:52.801Z,93.66
2023-02-25T02:24:52.832Z,93.87
2023-02-25T02:25:52.790Z,93.76
2023-02-25T02:26:52.782Z,93.66
2023-02-25T02:27:52.780Z,94.07
2023-02-25T02:28:52.757Z,93.41
2023-02-25T02:29:52.777Z,94.18
2023-02-25T02:30:52.790Z,93.87
2023-02-25T02:31:52.849Z,94.24
2023-02-25T02:32:52.734Z,94.28
2023-02-25T02:33:52.732Z,94.38
2023-02-25T02:34:52.766Z,94.24
2023-02-25T02:35:52.717Z,93.62
2023-02-25T02:36:52.712Z,93.82
2023-02-25T02:37:52.692Z,93.82
2023-02-25T02:38:52.693Z,93.45
2023-02-25T02:39:52.711Z,93.97
2023-02-25T02:40:52.675Z,93.93
2023-02-25T02:41:52.670Z,93.97
2023-02-25T02:42:52.658Z,93.82
2023-02-25T02:43:52.692Z,93.41
2023-02-25T02:44:52.664Z,94.18
2023-02-25T02:45:52.682Z,94.34
2023-02-25T02:46:52.640Z,94.24
2023-02-25T02:47:52.617Z,94.24
2023-02-25T02:48:52.621Z,94.34
2023-02-25T02:49:52.637Z,93.97
2023-02-25T02:50:52.577Z,93.93
2023-02-25T02:51:53.604Z,93.72
2023-02-25T02:52:52.597Z,93.82
2023-02-25T02:53:52.572Z,93.62
2023-02-25T02:54:52.591Z,93.82
2023-02-25T02:55:52.568Z,93.41
2023-02-25T02:56:52.557Z,93.93
2023-02-25T02:57:52.588Z,93.82
2023-02-25T02:58:52.533Z,93.93
2023-02-25T02:59:52.564Z,93.72
2023-02-25T03:00:52.566Z,93.93
2023-02-25T03:01:52.538Z,93.82
2023-02-25T03:02:52.506Z,93.51
2023-02-25T03:03:52.548Z,94.13
2023-02-25T03:04:52.496Z,94.34
2023-02-25T03:05:52.509Z,94.45
2023-02-25T03:06:52.497Z,94.34
2023-02-25T03:07:52.482Z,94.34
2023-02-25T03:08:52.457Z,94.34
2023-02-25T03:09:52.445Z,93.72
2023-02-25T03:10:52.528Z,94.13
2023-02-25T03:11:52.447Z,95.17
2023-02-25T03:12:52.428Z,94.96
2023-02-25T03:13:52.439Z,95.59
2023-02-25T03:14:52.415Z,95.07
2023-02-25T03:15:52.453Z,95.38
2023-02-25T03:16:52.459Z,94.86
2023-02-25T03:17:52.382Z,94.34
2023-02-25T03:18:52.385Z,93.93
2023-02-25T03:19:52.384Z,93.72
2023-02-25T03:20:52.396Z,93.97
2023-02-25T03:21:52.385Z,93.35
2023-02-25T03:22:52.366Z,93.41
2023-02-25T03:23:52.352Z,93.41
2023-02-25T03:24:52.362Z,93.41
2023-02-25T03:25:52.366Z,93.41
2023-02-25T03:26:52.338Z,93.51
2023-02-25T03:27:52.326Z,94.03
2023-02-25T03:28:52.353Z,93.82
2023-02-25T03:29:52.318Z,93.51
2023-02-25T03:30:52.400Z,93.82
2023-02-25T03:31:52.387Z,93.41
2023-02-25T03:32:52.407Z,93.10
2023-02-25T03:33:52.282Z,93.10
2023-02-25T03:34:52.281Z,93.41
2023-02-25T03:35:52.306Z,93.41
2023-02-25T03:36:52.271Z,93.41
2023-02-25T03:37:52.258Z,93.82
2023-02-25T03:38:52.235Z,93.10
2023-02-25T03:39:52.245Z,92.88
2023-02-25T03:40:52.245Z,92.99
2023-02-25T03:41:52.221Z,93.82
2023-02-25T03:42:52.217Z,93.30
2023-02-25T03:43:52.202Z,93.30
2023-02-25T03:44:52.194Z,93.41
2023-02-25T03:45:52.228Z,92.99
2023-02-25T03:46:52.175Z,92.88
2023-02-25T03:47:52.177Z,92.57
2023-02-25T03:48:52.161Z,92.84
2023-02-25T03:49:52.156Z,92.99
2023-02-25T03:50:52.187Z,93.37
2023-02-25T03:51:52.149Z,92.57
2023-02-25T03:52:52.137Z,92.57
2023-02-25T03:53:52.131Z,92.01
2023-02-25T03:54:52.152Z,92.47
2023-02-25T03:55:52.137Z,92.32
2023-02-25T03:56:52.154Z,92.36
2023-02-25T03:57:52.091Z,92.22
2023-02-25T03:58:52.078Z,92.43
2023-02-25T03:59:52.084Z,92.11
2023-02-25T04:00:52.095Z,92.53
2023-02-25T04:01:52.053Z,91.80
2023-02-25T04:02:52.049Z,92.43
2023-02-25T04:03:52.047Z,92.63
2023-02-25T04:04:52.048Z,92.36
2023-02-25T04:05:52.063Z,92.43
2023-02-25T04:06:52.008Z,92.53
2023-02-25T04:07:52.015Z,91.49
2023-02-25T04:08:52.019Z,91.22
2023-02-25T04:09:51.994Z,91.28
2023-02-25T04:10:51.978Z,91.39
2023-02-25T04:11:53.006Z,91.39
2023-02-25T04:12:51.984Z,91.28
2023-02-25T04:13:51.959Z,91.39
2023-02-25T04:14:51.964Z,91.49
2023-02-25T04:15:51.996Z,91.18
2023-02-25T04:16:52.286Z,91.18
2023-02-25T04:17:51.936Z,91.28
2023-02-25T04:18:51.925Z,91.60
2023-02-25T04:19:51.919Z,91.80
2023-02-25T04:20:51.939Z,91.91
2023-02-25T04:21:52.337Z,91.60
2023-02-25T04:22:51.897Z,91.91
2023-02-25T04:23:51.901Z,92.53
2023-02-25T04:24:51.889Z,92.11
2023-02-25T04:25:51.871Z,92.36
2023-02-25T04:26:51.893Z,92.22
2023-02-25T04:27:51.870Z,92.11
2023-02-25T04:28:51.844Z,91.80
2023-02-25T04:29:51.847Z,91.22
2023-02-25T04:30:51.892Z,91.22
2023-02-25T04:31:51.938Z,91.74
2023-02-25T04:32:52.050Z,91.85
2023-02-25T04:33:51.837Z,91.74
2023-02-25T04:34:51.819Z,91.43
2023-02-25T04:35:51.803Z,91.33
2023-02-25T04:36:51.835Z,91.12
2023-02-25T04:37:51.801Z,90.91
2023-02-25T04:38:51.794Z,90.87
2023-02-25T04:39:51.830Z,91.08
2023-02-25T04:40:51.780Z,90.97
2023-02-25T04:41:51.816Z,91.70
2023-02-25T04:42:51.776Z,91.08
2023-02-25T04:43:52.749Z,91.43
2023-02-25T04:44:51.749Z,91.43
2023-02-25T04:45:51.734Z,91.02
2023-02-25T04:46:52.010Z,91.43
2023-02-25T04:47:51.716Z,91.33
2023-02-25T04:48:51.713Z,91.70
2023-02-25T04:49:51.704Z,91.33
2023-02-25T04:50:52.716Z,91.28
2023-02-25T04:51:51.715Z,91.80
2023-02-25T04:52:51.678Z,91.60
2023-02-25T04:53:51.674Z,91.28
2023-02-25T04:54:51.671Z,91.28
2023-02-25T04:55:51.669Z,91.70
2023-02-25T04:56:51.680Z,91.80
2023-02-25T04:57:51.669Z,91.85
2023-02-25T04:58:51.631Z,91.95
2023-02-25T04:59:51.623Z,92.47
2023-02-25T05:00:51.615Z,92.57
2023-02-25T05:01:51.686Z,92.26
2023-02-25T05:02:51.607Z,92.16
2023-02-25T05:03:51.601Z,92.26
2023-02-25T05:04:51.669Z,92.11
2023-02-25T05:05:51.585Z,91.95
2023-02-25T05:06:51.596Z,92.16
2023-02-25T05:07:52.568Z,92.11
2023-02-25T05:08:51.572Z,92.32
2023-02-25T05:09:51.562Z,92.32
2023-02-25T05:10:51.562Z,92.63
2023-02-25T05:11:51.566Z,92.22
2023-02-25T05:12:51.548Z,92.78
2023-02-25T05:13:51.542Z,92.01
2023-02-25T05:14:51.525Z,91.70
2023-02-25T05:15:51.595Z,92.05
2023-02-25T05:16:51.535Z,92.47
2023-02-25T05:17:51.515Z,92.26
2023-02-25T05:18:51.494Z,92.36
2023-02-25T05:19:51.484Z,91.85
2023-02-25T05:20:51.496Z,91.64
2023-02-25T05:21:51.501Z,91.70
2023-02-25T05:22:51.462Z,91.91
2023-02-25T05:23:51.458Z,91.80
2023-02-25T05:24:51.452Z,92.43
2023-02-25T05:25:51.441Z,92.47
2023-02-25T05:26:51.464Z,92.53
2023-02-25T05:27:51.484Z,92.36
2023-02-25T05:28:51.413Z,92.63
2023-02-25T05:29:51.438Z,92.53
2023-02-25T05:30:51.429Z,92.63
2023-02-25T05:31:51.580Z,91.70
2023-02-25T05:32:51.465Z,91.70
2023-02-25T05:33:51.378Z,91.28
2023-02-25T05:34:51.380Z,91.70
2023-02-25T05:35:51.385Z,91.43
2023-02-25T05:36:51.359Z,91.39
2023-02-25T05:37:51.374Z,91.39
2023-02-25T05:38:51.352Z,91.08
2023-02-25T05:39:51.338Z,91.28
2023-02-25T05:40:51.336Z,91.22
2023-02-25T05:41:51.513Z,90.97
2023-02-25T05:42:51.328Z,90.77
2023-02-25T05:43:51.311Z,90.87
2023-02-25T05:44:51.296Z,90.97
2023-02-25T05:45:51.297Z,90.77
2023-02-25T05:46:51.350Z,90.87
2023-02-25T05:47:51.306Z,91.08
2023-02-25T05:48:51.280Z,91.18
2023-02-25T05:49:51.254Z,91.08
2023-02-25T05:50:51.296Z,91.02
2023-02-25T05:51:51.237Z,91.22
2023-02-25T05:52:51.267Z,91.18
2023-02-25T05:53:51.225Z,91.18
2023-02-25T05:54:51.227Z,90.87
2023-02-25T05:55:51.216Z,90.66
2023-02-25T05:56:51.232Z,90.91
2023-02-25T05:57:51.230Z,90.87
2023-02-25T05:58:51.181Z,90.81
2023-02-25T05:59:51.184Z,90.77
2023-02-25T06:00:51.182Z,90.97
2023-02-25T06:01:51.243Z,90.97
2023-02-25T06:02:51.242Z,90.97
2023-02-25T06:03:51.148Z,90.91
2023-02-25T06:04:51.143Z,91.08
2023-02-25T06:05:51.146Z,90.87
2023-02-25T06:06:51.127Z,90.97
2023-02-25T06:07:51.139Z,90.77
2023-02-25T06:08:51.118Z,90.14
2023-02-25T06:09:51.123Z,90.56
2023-02-25T06:10:51.092Z,90.45
2023-02-25T06:11:51.100Z,91.12
2023-02-25T06:12:51.116Z,91.12
2023-02-25T06:13:51.073Z,90.81
2023-02-25T06:14:51.082Z,90.97
2023-02-25T06:15:51.060Z,91.08
2023-02-25T06:16:51.148Z,91.18
2023-02-25T06:17:51.081Z,90.97
2023-02-25T06:18:51.044Z,90.77
2023-02-25T06:19:51.030Z,90.70
2023-02-25T06:20:51.024Z,90.77
2023-02-25T06:21:51.023Z,90.66
2023-02-25T06:22:51.033Z,90.45
2023-02-25T06:23:51.009Z,90.60
2023-02-25T06:24:51.999Z,90.66
2023-02-25T06:25:50.984Z,91.08
2023-02-25T06:26:50.985Z,91.02
2023-02-25T06:27:51.010Z,91.02
2023-02-25T06:28:50.990Z,90.66
2023-02-25T06:29:50.971Z,90.60
2023-02-25T06:30:50.982Z,90.14
2023-02-25T06:31:51.050Z,90.35
2023-02-25T06:32:51.042Z,90.56
2023-02-25T06:33:51.934Z,90.19
2023-02-25T06:34:50.926Z,90.66
2023-02-25T06:35:50.913Z,90.25
2023-02-25T06:36:50.899Z,90.14
2023-02-25T06:37:50.905Z,90.04
2023-02-25T06:38:50.923Z,89.89
2023-02-25T06:39:50.880Z,90.04
2023-02-25T06:40:50.880Z,89.83
2023-02-25T06:41:50.877Z,89.83
2023-02-25T06:42:50.870Z,89.83
2023-02-25T06:43:50.891Z,89.67
2023-02-25T06:44:50.868Z,89.62
2023-02-25T06:45:50.924Z,89.62
2023-02-25T06:46:50.832Z,89.83
2023-02-25T06:47:50.832Z,89.62
2023-02-25T06:48:50.862Z,89.79
2023-02-25T06:49:50.818Z,89.52
2023-02-25T06:50:50.812Z,89.62
2023-02-25T06:51:50.795Z,89.58
2023-02-25T06:52:50.794Z,88.85
2023-02-25T06:53:50.804Z,89.21
2023-02-25T06:54:50.773Z,89.06
2023-02-25T06:55:50.781Z,89.27
2023-02-25T06:56:50.760Z,89.37
2023-02-25T06:57:51.401Z,89.17
2023-02-25T06:58:50.802Z,89.00
2023-02-25T06:59:50.729Z,89.27
2023-02-25T07:00:50.828Z,89.27
2023-02-25T07:01:50.821Z,88.65
2023-02-25T07:02:50.705Z,88.44
2023-02-25T07:03:50.758Z,88.54
2023-02-25T07:04:50.786Z,88.65
2023-02-25T07:05:50.694Z,88.34
2023-02-25T07:06:50.674Z,88.44
2023-02-25T07:07:50.808Z,89.06
2023-02-25T07:08:50.792Z,89.27
2023-02-25T07:09:50.700Z,88.65
2023-02-25T07:10:50.657Z,88.65
2023-02-25T07:11:50.827Z,88.48
2023-02-25T07:12:50.659Z,88.65
2023-02-25T07:13:50.657Z,88.34
2023-02-25T07:14:50.630Z,88.54
2023-02-25T07:15:51.967Z,88.54
2023-02-25T07:16:51.215Z,88.54
2023-02-25T07:17:50.601Z,89.31
2023-02-25T07:18:50.611Z,89.27
2023-02-25T07:19:50.595Z,88.65
2023-02-25T07:20:50.588Z,88.54
2023-02-25T07:21:50.576Z,88.65
2023-02-25T07:22:50.565Z,88.13
2023-02-25T07:23:50.590Z,87.92
2023-02-25T07:24:50.609Z,88.13
2023-02-25T07:25:50.540Z,87.82
2023-02-25T07:26:50.538Z,88.02
2023-02-25T07:27:50.535Z,88.02
2023-02-25T07:28:50.573Z,87.61
2023-02-25T07:29:50.515Z,87.40
2023-02-25T07:30:50.565Z,87.82
2023-02-25T07:31:50.665Z,87.68
2023-02-25T07:32:50.509Z,88.23
2023-02-25T07:33:50.529Z,87.51
2023-02-25T07:34:50.478Z,87.61
2023-02-25T07:35:50.469Z,87.61
2023-02-25T07:36:50.460Z,87.51
2023-02-25T07:37:50.445Z,88.23
2023-02-25T07:38:50.472Z,88.44
2023-02-25T07:39:50.440Z,88.75
2023-02-25T07:40:50.419Z,89.06
2023-02-25T07:41:50.421Z,89.17
2023-02-25T07:42:50.403Z,89.11
2023-02-25T07:43:50.434Z,89.52
2023-02-25T07:44:50.409Z,88.65
2023-02-25T07:45:50.425Z,89.48
2023-02-25T07:46:50.381Z,89.42
2023-02-25T07:47:50.384Z,90.25
2023-02-25T07:48:50.405Z,90.70
2023-02-25T07:49:50.365Z,91.43
2023-02-25T07:50:50.358Z,91.85
2023-02-25T07:51:50.344Z,91.33
2023-02-25T07:52:50.367Z,91.33
2023-02-25T07:53:50.380Z,92.47
2023-02-25T07:54:50.328Z,92.47
2023-02-25T07:55:50.342Z,91.85
2023-02-25T07:56:50.331Z,92.36
2023-02-25T07:57:50.301Z,92.47
2023-02-25T07:58:50.315Z,92.53
2023-02-25T07:59:50.291Z,91.80
2023-02-25T08:00:50.288Z,92.63
2023-02-25T08:01:50.301Z,92.49
2023-02-25T08:02:50.296Z,92.49
2023-02-25T08:03:50.305Z,92.28
2023-02-25T08:04:50.383Z,92.38
2023-02-25T08:05:50.260Z,91.86
2023-02-25T08:06:50.233Z,92.69
2023-02-25T08:07:50.223Z,91.93
2023-02-25T08:08:50.243Z,92.35
2023-02-25T08:09:50.206Z,91.76
2023-02-25T08:10:50.206Z,92.18
2023-02-25T08:11:50.203Z,92.59
2023-02-25T08:12:50.194Z,92.07
2023-02-25T08:13:50.210Z,92.28
2023-02-25T08:14:50.184Z,92.38
2023-02-25T08:15:50.247Z,92.49
2023-02-25T08:16:50.163Z,92.07
2023-02-25T08:17:50.191Z,91.97
2023-02-25T08:18:50.198Z,92.59
2023-02-25T08:19:50.157Z,92.53
2023-02-25T08:20:50.136Z,92.49
2023-02-25T08:21:50.115Z,92.69
2023-02-25T08:22:50.139Z,92.18
2023-02-25T08:23:50.135Z,92.22
2023-02-25T08:24:50.150Z,92.59
2023-02-25T08:25:50.089Z,92.74
2023-02-25T08:26:50.112Z,93.16
2023-02-25T08:27:50.077Z,93.12
2023-02-25T08:28:50.096Z,93.12
2023-02-25T08:29:50.068Z,93.12
2023-02-25T08:30:50.101Z,93.22
2023-02-25T08:31:50.295Z,93.26
2023-02-25T08:32:50.119Z,93.78
2023-02-25T08:33:50.065Z,93.57
2023-02-25T08:34:50.028Z,94.20
2023-02-25T08:35:50.022Z,93.30
2023-02-25T08:36:50.014Z,94.09
2023-02-25T08:37:50.026Z,94.20
2023-02-25T08:38:50.047Z,94.13
2023-02-25T08:39:49.987Z,94.55
2023-02-25T08:40:50.017Z,94.70
2023-02-25T08:41:49.994Z,94.84
2023-02-25T08:42:50.170Z,95.36
2023-02-25T08:43:49.999Z,95.67
2023-02-25T08:44:49.948Z,95.67
2023-02-25T08:45:49.935Z,96.09
2023-02-25T08:46:50.117Z,96.72
2023-02-25T08:47:49.924Z,97.03
2023-02-25T08:48:49.953Z,96.92
2023-02-25T08:49:49.904Z,96.14
2023-02-25T08:50:49.910Z,95.93
2023-02-25T08:51:49.918Z,95.99
2023-02-25T08:52:49.899Z,95.99
2023-02-25T08:53:49.919Z,95.99
2023-02-25T08:54:49.873Z,95.99
2023-02-25T08:55:49.864Z,95.47
2023-02-25T08:56:49.855Z,95.26
2023-02-25T08:57:49.851Z,95.26
2023-02-25T08:58:49.872Z,95.05
2023-02-25T08:59:49.834Z,95.05
2023-02-25T09:00:49.877Z,95.15
2023-02-25T09:01:49.825Z,94.43
2023-02-25T09:02:49.813Z,93.87
2023-02-25T09:03:49.795Z,93.49
2023-02-25T09:04:49.910Z,94.12
2023-02-25T09:05:49.795Z,93.35
2023-02-25T09:06:49.783Z,92.66
2023-02-25T09:07:49.760Z,93.76
2023-02-25T09:08:49.751Z,92.55
2023-02-25T09:09:49.791Z,92.72
2023-02-25T09:10:51.032Z,92.76
2023-02-25T09:11:50.732Z,92.66
2023-02-25T09:12:49.747Z,92.61
2023-02-25T09:13:49.722Z,92.82
2023-02-25T09:14:49.741Z,91.99
2023-02-25T09:15:49.717Z,91.95
2023-02-25T09:16:49.842Z,93.10
2023-02-25T09:17:49.694Z,93.41
2023-02-25T09:18:49.693Z,92.78
2023-02-25T09:19:49.697Z,92.16
2023-02-25T09:20:49.752Z,91.85
2023-02-25T09:21:49.650Z,93.30
2023-02-25T09:22:50.659Z,93.41
2023-02-25T09:23:49.646Z,93.16
2023-02-25T09:24:49.660Z,92.26
2023-02-25T09:25:49.646Z,91.74
2023-02-25T09:26:49.639Z,91.33
2023-02-25T09:27:49.626Z,91.74
2023-02-25T09:28:49.635Z,92.26
2023-02-25T09:29:49.638Z,91.91
2023-02-25T09:30:49.625Z,91.12
2023-02-25T09:31:49.838Z,92.78
2023-02-25T09:32:49.735Z,92.22
2023-02-25T09:33:49.580Z,91.70
2023-02-25T09:34:49.608Z,91.39
2023-02-25T09:35:49.556Z,91.39
2023-02-25T09:36:49.547Z,91.28
2023-02-25T09:37:49.551Z,91.08
2023-02-25T09:38:49.540Z,90.00
2023-02-25T09:39:49.558Z,91.14
2023-02-25T09:40:49.571Z,91.14
2023-02-25T09:41:49.523Z,90.27
2023-02-25T09:42:49.510Z,90.58
2023-02-25T09:43:49.495Z,90.10
2023-02-25T09:44:49.523Z,90.20
2023-02-25T09:45:49.684Z,89.79
2023-02-25T09:46:49.481Z,88.34
2023-02-25T09:47:49.526Z,88.75
2023-02-25T09:48:49.479Z,89.65
2023-02-25T09:49:49.485Z,89.19
2023-02-25T09:50:49.454Z,88.53
2023-02-25T09:51:49.442Z,88.42
2023-02-25T09:52:49.443Z,88.01
2023-02-25T09:53:49.534Z,87.63
2023-02-25T09:54:49.468Z,87.74
2023-02-25T09:55:49.424Z,87.74
2023-02-25T09:56:49.410Z,88.46
2023-02-25T09:57:49.431Z,87.84
2023-02-25T09:58:49.380Z,87.43
2023-02-25T09:59:50.452Z,87.47
2023-02-25T10:00:49.383Z,87.51
2023-02-25T10:01:49.407Z,87.82
2023-02-25T10:02:49.486Z,88.69
2023-02-25T10:03:49.357Z,89.73
2023-02-25T10:04:49.383Z,89.73
2023-02-25T10:05:49.343Z,89.83
2023-02-25T10:06:49.343Z,90.70
2023-02-25T10:07:49.324Z,91.12
2023-02-25T10:08:49.320Z,90.06
2023-02-25T10:09:49.338Z,90.75
2023-02-25T10:10:49.295Z,89.92
2023-02-25T10:11:49.286Z,88.60
2023-02-25T10:12:49.303Z,88.81
2023-02-25T10:13:49.276Z,87.77
2023-02-25T10:14:49.302Z,87.77
2023-02-25T10:15:52.785Z,87.56
2023-02-25T10:16:50.285Z,87.88
2023-02-25T10:17:49.237Z,86.27
2023-02-25T10:18:49.243Z,87.01
2023-02-25T10:19:49.254Z,86.59
2023-02-25T10:20:49.224Z,85.96
2023-02-25T10:21:49.249Z,87.11
2023-02-25T10:22:49.203Z,87.52
2023-02-25T10:23:49.205Z,87.79
2023-02-25T10:24:49.246Z,86.44
2023-02-25T10:25:49.178Z,87.69
2023-02-25T10:26:49.173Z,87.73
2023-02-25T10:27:49.172Z,87.94
2023-02-25T10:28:49.159Z,89.67
2023-02-25T10:29:49.196Z,88.84
2023-02-25T10:30:49.207Z,89.36
2023-02-25T10:31:49.251Z,88.73
2023-02-25T10:32:49.242Z,88.52
2023-02-25T10:33:49.123Z,88.62
2023-02-25T10:34:49.153Z,89.18
2023-02-25T10:35:49.103Z,89.18
2023-02-25T10:36:49.092Z,89.98
2023-02-25T10:37:49.095Z,88.52
2023-02-25T10:38:49.075Z,88.90
2023-02-25T10:39:49.077Z,87.65
2023-02-25T10:40:49.117Z,87.55
2023-02-25T10:41:49.108Z,87.55
2023-02-25T10:42:50.077Z,87.55
2023-02-25T10:43:49.079Z,87.55
2023-02-25T10:44:49.092Z,87.76
2023-02-25T10:45:49.090Z,87.61
2023-02-25T10:46:49.020Z,89.52
2023-02-25T10:47:49.020Z,87.61
2023-02-25T10:48:49.008Z,86.36
2023-02-25T10:49:48.992Z,84.84
2023-02-25T10:50:49.129Z,84.74
2023-02-25T10:51:48.986Z,85.88
2023-02-25T10:52:48.974Z,85.93
2023-02-25T10:53:48.967Z,87.86
2023-02-25T10:54:49.014Z,88.17
2023-02-25T10:55:48.978Z,87.78
2023-02-25T10:56:48.935Z,86.18
2023-02-25T10:57:48.937Z,86.35
2023-02-25T10:58:48.924Z,84.69
2023-02-25T10:59:48.915Z,83.86
2023-02-25T11:00:48.938Z,83.07
2023-02-25T11:01:48.979Z,82.07
2023-02-25T11:02:48.927Z,84.42
2023-02-25T11:03:48.899Z,80.99
2023-02-25T11:04:48.882Z,81.06
2023-02-25T11:05:48.891Z,80.51
2023-02-25T11:06:48.869Z,82.95
2023-02-25T11:07:48.878Z,80.71
2023-02-25T11:08:48.856Z,81.20
2023-02-25T11:09:48.868Z,79.10
2023-02-25T11:10:48.863Z,78.41
2023-02-25T11:11:48.828Z,79.24
2023-02-25T11:12:48.823Z,79.30
2023-02-25T11:13:48.806Z,78.09
2023-02-25T11:14:49.573Z,78.23
2023-02-25T11:15:48.944Z,78.75
2023-02-25T11:16:48.796Z,79.02
2023-02-25T11:17:48.793Z,78.26
2023-02-25T11:18:48.779Z,77.67
2023-02-25T11:19:48.798Z,77.67
2023-02-25T11:20:48.789Z,75.63
2023-02-25T11:21:49.759Z,75.36
2023-02-25T11:22:48.758Z,76.12
2023-02-25T11:23:48.743Z,75.50
2023-02-25T11:24:48.735Z,77.37
2023-02-25T11:25:48.782Z,77.64
2023-02-25T11:26:48.758Z,76.29
2023-02-25T11:27:48.704Z,77.33
2023-02-25T11:28:48.716Z,76.19
2023-02-25T11:29:48.703Z,75.92
2023-02-25T11:30:48.805Z,77.89
2023-02-25T11:31:49.093Z,77.33
2023-02-25T11:32:48.729Z,77.44
2023-02-25T11:33:48.663Z,76.81
2023-02-25T11:34:48.683Z,77.75
2023-02-25T11:35:48.644Z,75.57
2023-02-25T11:36:50.877Z,76.26
2023-02-25T11:37:48.630Z,75.22
2023-02-25T11:38:48.646Z,75.36
2023-02-25T11:39:48.648Z,75.53
2023-02-25T11:40:48.611Z,74.29
2023-02-25T11:41:48.636Z,75.22
2023-02-25T11:42:48.602Z,75.95
2023-02-25T11:43:48.602Z,75.88
2023-02-25T11:44:48.591Z,76.29
2023-02-25T11:45:48.579Z,75.92
2023-02-25T11:46:48.648Z,77.16
2023-02-25T11:47:48.560Z,78.51
2023-02-25T11:48:48.564Z,78.44
2023-02-25T11:49:48.548Z,78.82
2023-02-25T11:50:48.537Z,81.18
2023-02-25T11:51:48.573Z,82.46
2023-02-25T11:52:48.523Z,83.99
2023-02-25T11:53:48.576Z,85.28
2023-02-25T11:54:48.511Z,86.11
2023-02-25T11:55:48.503Z,87.98
2023-02-25T11:56:48.600Z,88.85
2023-02-25T11:57:48.499Z,90.00
2023-02-25T11:58:48.492Z,88.89
2023-02-25T11:59:48.476Z,87.81
2023-02-25T12:00:48.477Z,86.15
2023-02-25T12:01:48.485Z,86.40
2023-02-25T12:02:48.515Z,86.25
2023-02-25T12:03:48.438Z,86.21
2023-02-25T12:04:48.436Z,84.69
2023-02-25T12:05:48.527Z,85.94
2023-02-25T12:06:48.445Z,85.11
2023-02-25T12:08:05.174Z,84.90
2023-02-25T12:08:50.396Z,86.11
2023-02-25T12:09:49.398Z,85.44
2023-02-25T12:10:48.388Z,84.41
2023-02-25T12:11:48.400Z,84.51
2023-02-25T12:12:48.381Z,84.61
2023-02-25T12:13:48.388Z,84.41
2023-02-25T12:14:48.361Z,84.20
2023-02-25T12:15:48.452Z,84.58
2023-02-25T12:16:48.370Z,84.16
2023-02-25T12:17:48.345Z,85.30
2023-02-25T12:18:48.331Z,85.85
2023-02-25T12:19:48.329Z,81.25
2023-02-25T12:20:48.329Z,80.46
2023-02-25T12:21:48.333Z,81.39
2023-02-25T12:22:48.321Z,81.91
2023-02-25T12:23:48.312Z,82.12
2023-02-25T12:24:48.285Z,82.22
2023-02-25T12:25:48.282Z,81.87
2023-02-25T12:26:48.338Z,82.08
2023-02-25T12:27:48.263Z,82.15
2023-02-25T12:28:49.803Z,80.97
2023-02-25T12:29:48.259Z,79.83
2023-02-25T12:30:48.242Z,81.18
2023-02-25T12:31:48.352Z,81.07
2023-02-25T12:32:48.223Z,79.20
2023-02-25T12:33:48.254Z,78.55
2023-02-25T12:34:48.211Z,79.27
2023-02-25T12:35:48.222Z,77.02
2023-02-25T12:36:48.201Z,75.46
2023-02-25T12:37:48.223Z,76.29
2023-02-25T12:38:48.222Z,75.95
2023-02-25T12:39:48.177Z,76.09
2023-02-25T12:40:48.172Z,73.94
2023-02-25T12:41:48.189Z,74.15
2023-02-25T12:42:48.194Z,75.19
2023-02-25T12:43:48.151Z,75.81
2023-02-25T12:44:48.165Z,75.29
2023-02-25T12:45:48.140Z,75.09
2023-02-25T12:46:48.153Z,75.81
2023-02-25T12:47:48.137Z,75.81
2023-02-25T12:48:48.106Z,74.57
2023-02-25T12:49:48.100Z,74.98
2023-02-25T12:50:48.081Z,74.98
2023-02-25T12:51:48.091Z,73.53
2023-02-25T12:52:48.094Z,73.22